Terminal Aerodrome Forecast
Issued by NWS Albany, NY

Current Version | Previous Version | Text Only | Print | Product List | Glossary On
Versions: 1 2 3 4 5 6 7 8 9 10 11 12 13 14 15
000 FTUS41 KALY 230254 AAA TAFALB TAF AMD KALB 230254Z 2303/2324 30010G15KT P6SM FEW080 FM230700 30005KT P6SM SKC FM231400 28012G18KT P6SM SKC FM231700 27014G22KT P6SM SKC=

USA.gov is the U.S. government's official web portal to all federal, state and local government web resources and services.